Time;durP1;ratioP1;P1;durP2;ratioP2;P2;SDS_P1;SDS_P2;PMS_P1;PMS_P2;Temp;Humidity;BMP_temperature;BMP_pressure;BME280_temperature;BME280_humidity;BME280_pressure;Samples;Min_cycle;Max_cycle;Signal;HPM_P1;HPM_P2
2023/04/15 16:03:01;;;;;;;5.45;1.63;;;;;;;;;;5069702;28;20427;-82
2023/04/15 16:05:46;;;;;;;2.67;1.77;;;;;;;;;;5051064;28;20041;-83
2023/04/15 16:08:32;;;;;;;14.32;2.17;;;;;;;;;;5037235;28;20056;-83
2023/04/15 16:11:17;;;;;;;6.50;3.17;;;;;;;;;;5050124;28;20045;-83
2023/04/15 16:14:03;;;;;;;3.95;2.28;;;;;;;;;;5050726;28;20057;-81
2023/04/15 16:16:48;;;;;;;6.18;3.28;;;;;;;;;;5049415;28;20076;-81
2023/04/15 16:19:33;;;;;;;9.98;4.43;;;;;;;;;;5050673;28;20045;-83
2023/04/15 16:22:18;;;;;;;16.77;8.10;;;;;;;;;;5050575;28;20057;-83
2023/04/15 16:25:07;;;;;;;10.15;5.47;;;;;;;;;;5049152;28;20046;-83
2023/04/15 16:27:51;;;;;;;4.78;2.85;;;;;;;;;;5050954;28;20053;-83
2023/04/15 16:30:38;;;;;;;4.88;2.50;;;;;;;;;;5048788;28;20481;-85
2023/04/15 16:33:25;;;;;;;2.00;1.70;;;;;;;;;;5055825;28;20049;-85
2023/04/15 16:36:10;;;;;;;2.65;2.00;;;;;;;;;;5042024;28;20048;-84
2023/04/15 16:38:55;;;;;;;5.47;3.22;;;;;;;;;;5049526;28;20045;-84
2023/04/15 16:41:41;;;;;;;6.68;3.28;;;;;;;;;;5055851;28;20061;-86
2023/04/15 16:44:27;;;;;;;4.40;2.80;;;;;;;;;;5055447;28;20053;-86
2023/04/15 16:47:11;;;;;;;5.35;3.08;;;;;;;;;;5048903;28;20041;-87
2023/04/15 16:49:56;;;;;;;9.73;5.15;;;;;;;;;;5055655;28;20405;-86
2023/04/15 16:52:42;;;;;;;10.82;6.38;;;;;;;;;;5048680;28;20037;-86
2023/04/15 16:55:27;;;;;;;8.57;5.88;;;;;;;;;;5041680;28;20037;-84
2023/04/15 16:58:12;;;;;;;11.52;6.30;;;;;;;;;;5036832;28;20045;-84
2023/04/15 17:00:58;;;;;;;16.98;7.03;;;;;;;;;;5031915;28;20053;-86
2023/04/15 17:03:46;;;;;;;14.38;7.70;;;;;;;;;;5026925;28;20046;-84
2023/04/15 17:06:31;;;;;;;20.10;10.00;;;;;;;;;;5044215;28;20063;-84
2023/04/15 17:09:17;;;;;;;18.30;10.38;;;;;;;;;;5024931;28;20045;-84
2023/04/15 17:12:03;;;;;;;25.00;12.20;;;;;;;;;;5033301;28;20057;-84
2023/04/15 17:14:48;;;;;;;32.80;18.58;;;;;;;;;;5021143;28;20045;-84
2023/04/15 17:17:34;;;;;;;33.38;16.83;;;;;;;;;;5023873;28;20478;-83
2023/04/15 17:20:20;;;;;;;34.35;16.23;;;;;;;;;;5017153;28;20046;-84
2023/04/15 17:23:05;;;;;;;37.88;20.92;;;;;;;;;;5023640;28;20046;-86
2023/04/15 17:25:51;;;;;;;116.95;41.85;;;;;;;;;;5031188;28;20049;-85
2023/04/15 17:28:36;;;;;;;53.67;22.92;;;;;;;;;;5023969;28;20033;-85
2023/04/15 17:31:22;;;;;;;42.20;20.83;;;;;;;;;;5027854;28;20050;-85
2023/04/15 17:34:08;;;;;;;34.08;18.33;;;;;;;;;;5025975;28;20038;-86
2023/04/15 17:36:53;;;;;;;58.88;26.23;;;;;;;;;;5030036;28;20037;-86
2023/04/15 17:39:39;;;;;;;92.35;41.15;;;;;;;;;;5017843;28;20042;-86
2023/04/15 17:42:25;;;;;;;63.13;33.70;;;;;;;;;;5025053;28;20485;-85
2023/04/15 17:45:11;;;;;;;53.83;27.13;;;;;;;;;;5030800;28;20054;-84
2023/04/15 17:47:58;;;;;;;41.08;22.58;;;;;;;;;;5024381;28;20041;-84
2023/04/15 17:50:43;;;;;;;21.30;12.27;;;;;;;;;;5027787;28;20045;-87
2023/04/15 17:53:32;;;;;;;12.55;8.38;;;;;;;;;;5032565;28;20046;-87
2023/04/15 17:56:17;;;;;;;12.32;8.00;;;;;;;;;;5030818;28;20034;-84
2023/04/15 17:59:03;;;;;;;12.40;8.15;;;;;;;;;;5020244;28;20041;-87
2023/04/15 18:01:48;;;;;;;17.23;10.15;;;;;;;;;;5022686;28;20046;-87
2023/04/15 18:04:34;;;;;;;47.70;32.13;;;;;;;;;;5029626;28;20093;-86
2023/04/15 18:07:20;;;;;;;70.60;39.03;;;;;;;;;;5024663;28;20037;-86
2023/04/15 18:10:07;;;;;;;81.80;38.45;;;;;;;;;;5022556;28;20053;-88
2023/04/15 18:12:53;;;;;;;68.05;36.53;;;;;;;;;;5028557;28;20398;-86
2023/04/15 18:15:38;;;;;;;74.80;38.15;;;;;;;;;;5037734;28;20410;-86
2023/04/15 18:18:23;;;;;;;48.13;27.88;;;;;;;;;;5024490;28;20053;-85
2023/04/15 18:21:09;;;;;;;49.20;24.85;;;;;;;;;;5026267;28;20049;-85
2023/04/15 18:23:54;;;;;;;50.95;28.08;;;;;;;;;;5027900;28;20049;-85
2023/04/15 18:26:40;;;;;;;77.63;37.65;;;;;;;;;;5026355;28;20045;-85
2023/04/15 18:29:26;;;;;;;110.00;50.88;;;;;;;;;;5039855;28;20049;-87
2023/04/15 18:32:11;;;;;;;100.68;47.20;;;;;;;;;;5026188;28;20049;-87
2023/04/15 18:35:01;;;;;;;100.90;48.88;;;;;;;;;;5036112;28;20043;-87
2023/04/15 18:38:08;;;;;;;96.38;46.15;;;;;;;;;;5011820;28;20410;-88
2023/04/15 18:40:54;;;;;;;90.00;45.72;;;;;;;;;;5012221;28;20033;-87
2023/04/15 18:43:40;;;;;;;94.70;42.05;;;;;;;;;;5022792;28;20398;-87
2023/04/15 18:46:26;;;;;;;72.85;38.03;;;;;;;;;;5027752;28;20053;-85
2023/04/15 18:49:11;;;;;;;77.75;39.63;;;;;;;;;;5013550;28;20046;-86
2023/04/15 18:51:58;;;;;;;86.60;43.65;;;;;;;;;;5029775;28;20061;-87
2023/04/15 18:54:44;;;;;;;81.88;43.90;;;;;;;;;;5038990;28;20053;-83
2023/04/15 18:57:33;;;;;;;83.35;41.15;;;;;;;;;;5022210;28;20053;-86
2023/04/15 19:00:18;;;;;;;88.05;42.63;;;;;;;;;;5025872;28;20045;-86
2023/04/15 19:03:03;;;;;;;92.90;42.92;;;;;;;;;;5021771;28;20042;-86
2023/04/15 19:05:49;;;;;;;83.88;42.03;;;;;;;;;;5021532;28;20049;-86
2023/04/15 19:08:34;;;;;;;81.20;41.30;;;;;;;;;;5032398;28;20046;-87
2023/04/15 19:11:19;;;;;;;81.13;40.65;;;;;;;;;;5005991;28;20050;-86
2023/04/15 19:14:05;;;;;;;121.22;57.35;;;;;;;;;;5026900;28;20482;-86
2023/04/15 19:16:50;;;;;;;130.02;62.47;;;;;;;;;;5031107;28;20045;-86
2023/04/15 19:19:36;;;;;;;107.15;53.60;;;;;;;;;;5021384;28;20053;-85
2023/04/15 19:22:21;;;;;;;104.93;45.30;;;;;;;;;;5013199;28;20061;-85
2023/04/15 19:25:07;;;;;;;83.40;40.17;;;;;;;;;;5005894;28;20050;-84
2023/04/15 19:27:53;;;;;;;98.47;46.25;;;;;;;;;;5010680;28;20042;-86
2023/04/15 19:30:39;;;;;;;112.15;46.97;;;;;;;;;;5019321;28;20046;-87
2023/04/15 19:33:29;;;;;;;98.40;42.83;;;;;;;;;;5019241;28;20042;-87
2023/04/15 19:36:23;;;;;;;87.47;39.25;;;;;;;;;;5028556;28;20041;-86
2023/04/15 19:39:30;;;;;;;;;;;;;;;;;;;;;
2023/04/15 19:42:46;;;;;;;67.82;33.72;;;;;;;;;;5039257;28;20053;-86
2023/04/15 19:45:53;;;;;;;67.63;35.58;;;;;;;;;;5038172;28;20049;-88
2023/04/15 19:48:44;;;;;;;55.67;30.75;;;;;;;;;;5025254;28;20053;-87
2023/04/15 19:51:32;;;;;;;53.35;22.10;;;;;;;;;;5039078;28;20473;-88
2023/04/15 19:54:19;;;;;;;45.75;21.20;;;;;;;;;;5039147;28;20049;-86
2023/04/15 19:57:05;;;;;;;48.22;22.77;;;;;;;;;;5025216;28;20045;-88
2023/04/15 19:59:51;;;;;;;34.03;15.98;;;;;;;;;;5035735;28;20046;-85
2023/04/15 20:02:36;;;;;;;27.48;13.65;;;;;;;;;;5007766;28;20057;-86
2023/04/15 20:05:23;;;;;;;37.80;19.08;;;;;;;;;;5022133;28;20053;-86
2023/04/15 20:08:09;;;;;;;43.45;21.13;;;;;;;;;;5013099;28;20041;-87
2023/04/15 20:10:55;;;;;;;21.63;12.20;;;;;;;;;;5027660;28;20469;-85
2023/04/15 20:13:41;;;;;;;29.15;13.35;;;;;;;;;;5021387;28;20498;-84
2023/04/15 20:16:26;;;;;;;48.42;24.48;;;;;;;;;;5014154;28;20054;-85
2023/04/15 20:19:11;;;;;;;55.20;27.13;;;;;;;;;;5007475;28;20406;-86
2023/04/15 20:21:57;;;;;;;55.58;28.15;;;;;;;;;;5027683;28;20061;-86
2023/04/15 20:24:42;;;;;;;58.00;29.23;;;;;;;;;;5014859;28;20057;-86
2023/04/15 20:27:27;;;;;;;104.25;41.83;;;;;;;;;;5028269;28;20045;-84
2023/04/15 20:30:13;;;;;;;103.85;40.25;;;;;;;;;;5025604;28;20045;-84
2023/04/15 20:33:00;;;;;;;74.68;37.88;;;;;;;;;;5014361;28;20057;-86
2023/04/15 20:35:47;;;;;;;66.65;32.10;;;;;;;;;;5014511;28;20042;-86
2023/04/15 20:38:32;;;;;;;92.55;45.67;;;;;;;;;;5030225;28;20062;-86
2023/04/15 20:41:20;;;;;;;87.20;43.47;;;;;;;;;;5032207;28;20054;-85
2023/04/15 20:44:05;;;;;;;92.78;44.47;;;;;;;;;;5016042;28;20041;-85
2023/04/15 20:46:53;;;;;;;77.95;38.97;;;;;;;;;;5015985;28;20493;-87
2023/04/15 20:49:39;;;;;;;82.78;43.33;;;;;;;;;;5019773;28;20045;-87
2023/04/15 20:52:24;;;;;;;63.10;34.35;;;;;;;;;;5035039;28;20041;-87
2023/04/15 20:55:10;;;;;;;56.20;29.90;;;;;;;;;;5030625;28;20866;-86
2023/04/15 20:57:57;;;;;;;49.58;20.55;;;;;;;;;;5029150;28;20050;-86
2023/04/15 21:00:44;;;;;;;53.83;27.17;;;;;;;;;;5028870;28;20087;-86
2023/04/15 21:03:30;;;;;;;67.03;31.25;;;;;;;;;;5030100;28;20050;-85
2023/04/15 21:06:16;;;;;;;133.90;59.17;;;;;;;;;;5031918;28;20045;-87
2023/04/15 21:09:02;;;;;;;57.42;28.95;;;;;;;;;;5017954;28;20049;-85
2023/04/15 21:11:48;;;;;;;48.72;25.55;;;;;;;;;;5017503;28;20041;-84
2023/04/15 21:14:34;;;;;;;39.08;21.33;;;;;;;;;;5016740;28;20479;-85
2023/04/15 21:17:19;;;;;;;33.58;18.60;;;;;;;;;;5017247;28;20042;-86
2023/04/15 21:20:05;;;;;;;37.20;17.80;;;;;;;;;;5022630;28;20045;-87
2023/04/15 21:22:52;;;;;;;38.47;19.52;;;;;;;;;;5022284;28;20046;-87
2023/04/15 21:25:37;;;;;;;54.30;29.27;;;;;;;;;;5021720;28;20041;-85
2023/04/15 21:28:22;;;;;;;45.40;21.27;;;;;;;;;;5013354;28;20049;-87
2023/04/15 21:31:08;;;;;;;51.83;22.52;;;;;;;;;;5029170;28;20042;-86
2023/04/15 21:33:54;;;;;;;143.15;52.75;;;;;;;;;;5007996;28;20050;-85
2023/04/15 21:36:39;;;;;;;288.10;118.10;;;;;;;;;;4994247;28;20053;-85
2023/04/15 21:39:25;;;;;;;157.20;66.82;;;;;;;;;;5020773;28;20053;-88
2023/04/15 21:42:12;;;;;;;317.67;147.90;;;;;;;;;;5012132;28;20050;-84
2023/04/15 21:44:57;;;;;;;108.63;49.03;;;;;;;;;;5019732;28;20061;-85
2023/04/15 21:47:42;;;;;;;97.28;44.15;;;;;;;;;;5006493;28;20062;-85
2023/04/15 21:50:27;;;;;;;71.93;37.28;;;;;;;;;;5020741;28;20042;-86
2023/04/15 21:53:13;;;;;;;80.13;36.72;;;;;;;;;;5007160;28;20490;-85
2023/04/15 21:55:58;;;;;;;61.97;31.08;;;;;;;;;;5019918;28;20042;-85
2023/04/15 21:58:44;;;;;;;75.72;30.23;;;;;;;;;;5007418;28;20046;-84
2023/04/15 22:01:30;;;;;;;83.80;30.92;;;;;;;;;;5018436;28;20050;-83
2023/04/15 22:04:17;;;;;;;65.57;28.40;;;;;;;;;;5021537;28;20046;-85
2023/04/15 22:07:02;;;;;;;54.78;26.10;;;;;;;;;;5013988;28;20037;-84
2023/04/15 22:09:47;;;;;;;57.05;24.45;;;;;;;;;;5007387;28;20046;-85
2023/04/15 22:12:33;;;;;;;51.60;22.75;;;;;;;;;;5020823;28;20050;-85
2023/04/15 22:15:19;;;;;;;46.90;21.73;;;;;;;;;;5020814;28;20046;-84
2023/04/15 22:18:04;;;;;;;45.00;19.10;;;;;;;;;;5007453;28;20050;-86
2023/04/15 22:21:00;;;;;;;34.92;16.65;;;;;;;;;;5006763;28;20053;-85
2023/04/15 22:23:47;;;;;;;33.30;16.10;;;;;;;;;;5014531;28;20046;-82
2023/04/15 22:26:32;;;;;;;30.10;14.85;;;;;;;;;;5007070;28;20054;-84
2023/04/15 22:29:17;;;;;;;46.75;21.67;;;;;;;;;;5013788;28;20050;-83
2023/04/15 22:32:03;;;;;;;39.10;21.17;;;;;;;;;;5007184;28;20478;-83
2023/04/15 22:34:47;;;;;;;46.05;23.17;;;;;;;;;;5013828;28;20041;-84
2023/04/15 22:37:33;;;;;;;55.85;24.95;;;;;;;;;;5014369;28;20050;-85
2023/04/15 22:40:18;;;;;;;44.72;23.38;;;;;;;;;;5007082;28;20042;-85
2023/04/15 22:43:05;;;;;;;44.67;22.60;;;;;;;;;;5020200;28;20049;-83
2023/04/15 22:45:51;;;;;;;46.38;23.27;;;;;;;;;;5021062;28;20054;-83
2023/04/15 22:48:36;;;;;;;50.17;24.38;;;;;;;;;;5006622;28;20046;-84
2023/04/15 22:51:25;;;;;;;68.18;30.35;;;;;;;;;;5020596;28;20045;-85
2023/04/15 22:54:10;;;;;;;65.15;30.80;;;;;;;;;;5006523;28;20050;-85
2023/04/15 22:56:57;;;;;;;66.53;30.65;;;;;;;;;;5020001;28;20042;-85
2023/04/15 22:59:42;;;;;;;52.35;27.00;;;;;;;;;;5013618;28;20049;-85
2023/04/15 23:02:27;;;;;;;64.03;29.17;;;;;;;;;;5014883;28;20486;-84
2023/04/15 23:05:13;;;;;;;66.20;30.95;;;;;;;;;;5006352;28;20054;-84
2023/04/15 23:07:58;;;;;;;66.15;31.73;;;;;;;;;;5013813;28;20038;-84
2023/04/15 23:10:43;;;;;;;68.55;29.15;;;;;;;;;;5005862;28;20053;-83
2023/04/15 23:13:28;;;;;;;61.90;28.25;;;;;;;;;;5006119;28;20045;-83
2023/04/15 23:16:15;;;;;;;64.32;28.60;;;;;;;;;;5005957;28;20042;-83
2023/04/15 23:19:00;;;;;;;58.90;27.85;;;;;;;;;;5013397;28;20042;-83
2023/04/15 23:21:45;;;;;;;56.08;27.63;;;;;;;;;;5006209;28;20045;-84
2023/04/15 23:24:31;;;;;;;59.13;27.75;;;;;;;;;;5013054;28;20046;-84
2023/04/15 23:27:17;;;;;;;51.50;26.20;;;;;;;;;;5013527;28;20042;-83
2023/04/15 23:30:03;;;;;;;61.55;24.42;;;;;;;;;;5019726;28;20038;-84
2023/04/15 23:32:48;;;;;;;48.60;22.70;;;;;;;;;;5005672;28;20050;-84
2023/04/15 23:35:33;;;;;;;45.08;23.08;;;;;;;;;;5020000;28;20050;-83
2023/04/15 23:38:19;;;;;;;46.58;21.98;;;;;;;;;;5012909;28;20050;-84
2023/04/15 23:41:05;;;;;;;39.75;18.35;;;;;;;;;;5006072;28;20057;-83
2023/04/15 23:43:50;;;;;;;36.95;17.83;;;;;;;;;;5006088;28;20063;-85
2023/04/15 23:46:36;;;;;;;39.35;18.10;;;;;;;;;;5019603;28;20045;-83
2023/04/15 23:49:21;;;;;;;41.05;20.25;;;;;;;;;;5005827;28;20058;-84
2023/04/15 23:52:07;;;;;;;38.38;16.33;;;;;;;;;;5019008;28;20050;-82
2023/04/15 23:54:52;;;;;;;30.38;14.82;;;;;;;;;;5013225;28;20041;-83
2023/04/15 23:57:39;;;;;;;30.40;13.73;;;;;;;;;;5019446;28;20053;-82
